createdAt,value
2023-02-09T00:02:02.738Z,0
2023-02-09T00:02:43.241Z,0
2023-02-09T00:03:23.876Z,0
2023-02-09T00:04:05.274Z,0
2023-02-09T00:04:45.838Z,0
2023-02-09T00:07:00.567Z,0
2023-02-09T00:07:41.121Z,0
2023-02-09T00:08:23.103Z,0
2023-02-09T00:09:04.063Z,0
2023-02-09T00:11:02.714Z,0
2023-02-09T00:11:43.231Z,0
2023-02-09T00:12:23.707Z,0
2023-02-09T00:13:05.124Z,0
2023-02-09T00:15:23.942Z,0
2023-02-09T00:16:04.567Z,0
2023-02-09T00:16:45.102Z,0
2023-02-09T00:17:26.554Z,0
2023-02-09T00:19:44.929Z,0
2023-02-09T00:20:25.507Z,0
2023-02-09T00:21:06.023Z,0
2023-02-09T00:21:46.569Z,0
2023-02-09T00:22:27.119Z,0
2023-02-09T00:23:07.592Z,0
2023-02-09T00:23:48.112Z,0
2023-02-09T00:27:04.416Z,0
2023-02-09T00:27:44.976Z,0
2023-02-09T00:28:25.545Z,0
2023-02-09T00:29:05.983Z,0
2023-02-09T00:29:46.521Z,0
2023-02-09T00:30:27.037Z,0
2023-02-09T00:31:07.734Z,0
2023-02-09T00:31:48.130Z,0
2023-02-09T00:32:28.672Z,0
2023-02-09T00:33:09.859Z,0
2023-02-09T00:37:14.432Z,0
2023-02-09T00:37:54.973Z,0
2023-02-09T00:38:35.483Z,0
2023-02-09T00:39:15.988Z,0
2023-02-09T00:39:56.626Z,0
2023-02-09T00:40:37.820Z,0
2023-02-09T00:41:18.342Z,0
2023-02-09T00:41:58.828Z,0
2023-02-09T00:44:27.863Z,0
2023-02-09T00:45:08.524Z,0
2023-02-09T00:45:49.006Z,0
2023-02-09T00:46:30.350Z,0
2023-02-09T00:49:46.685Z,0
2023-02-09T00:50:27.231Z,0
2023-02-09T00:51:07.777Z,0
2023-02-09T00:51:48.332Z,0
2023-02-09T00:52:28.881Z,0
2023-02-09T00:53:09.434Z,0
2023-02-09T00:53:49.969Z,0
2023-02-09T00:54:30.529Z,0
2023-02-09T00:55:11.049Z,0
2023-02-09T00:55:51.601Z,0
2023-02-09T00:59:23.086Z,0
2023-02-09T01:00:03.809Z,0
2023-02-09T01:00:44.635Z,0
2023-02-09T01:01:25.873Z,0
2023-02-09T01:05:06.327Z,0
2023-02-09T01:05:50.714Z,0
2023-02-09T01:06:32.864Z,0
2023-02-09T01:07:20.881Z,0
2023-02-09T01:10:37.150Z,0
2023-02-09T01:11:17.702Z,0
2023-02-09T01:11:58.300Z,0
2023-02-09T01:12:38.836Z,0
2023-02-09T01:15:07.175Z,0
2023-02-09T01:15:47.691Z,0
2023-02-09T01:16:28.317Z,0
2023-02-09T01:17:08.988Z,0
2023-02-09T01:20:46.495Z,0
2023-02-09T01:21:26.833Z,0
2023-02-09T01:22:07.554Z,0
2023-02-09T01:22:48.211Z,0
2023-02-09T01:23:28.813Z,0
2023-02-09T01:24:09.354Z,0
2023-02-09T01:24:49.958Z,0
2023-02-09T01:25:30.604Z,0
2023-02-09T01:26:11.131Z,0
2023-02-09T01:30:15.893Z,0
2023-02-09T01:30:56.494Z,0
2023-02-09T01:31:37.083Z,0
2023-02-09T01:32:17.521Z,0
2023-02-09T01:34:30.626Z,0
2023-02-09T01:35:11.187Z,0
2023-02-09T01:35:51.743Z,0
2023-02-09T01:36:32.280Z,0
2023-02-09T01:37:12.820Z,0
2023-02-09T01:37:53.391Z,0
2023-02-09T01:40:06.560Z,0
2023-02-09T01:40:47.046Z,0
2023-02-09T01:41:27.612Z,0
2023-02-09T01:42:08.868Z,0
2023-02-09T01:42:49.495Z,0
2023-02-09T01:43:29.984Z,0
2023-02-09T01:44:11.102Z,0
2023-02-09T01:48:17.167Z,0
2023-02-09T01:48:58.540Z,0
2023-02-09T01:49:39.250Z,0
2023-02-09T01:50:19.900Z,0
2023-02-09T01:51:00.619Z,0
2023-02-09T01:51:41.962Z,0
2023-02-09T01:55:46.141Z,0
2023-02-09T01:56:26.738Z,0
2023-02-09T01:57:07.267Z,0
2023-02-09T01:57:47.780Z,0
2023-02-09T01:58:28.341Z,0
2023-02-09T01:59:09.606Z,0
2023-02-09T01:59:50.220Z,0
2023-02-09T02:00:30.865Z,0
2023-02-09T02:01:11.412Z,0
2023-02-09T02:05:12.328Z,0
2023-02-09T02:05:52.853Z,0
2023-02-09T02:06:33.367Z,0
2023-02-09T02:07:13.868Z,0
2023-02-09T02:07:54.421Z,0
2023-02-09T02:08:34.995Z,0
2023-02-09T02:10:48.088Z,0
2023-02-09T02:11:28.595Z,0
2023-02-09T02:12:09.758Z,0
2023-02-09T02:12:50.305Z,0
2023-02-09T02:13:31.777Z,0
2023-02-09T02:14:12.303Z,0
2023-02-09T02:18:55.519Z,0
2023-02-09T02:19:36.053Z,0
2023-02-09T02:20:17.467Z,0
2023-02-09T02:20:57.996Z,0
2023-02-09T02:23:26.440Z,0
2023-02-09T02:24:07.616Z,0
2023-02-09T02:24:48.081Z,0
2023-02-09T02:25:28.642Z,0
2023-02-09T02:27:42.170Z,0
2023-02-09T02:28:22.705Z,0
2023-02-09T02:29:03.235Z,0
2023-02-09T02:29:43.799Z,0
2023-02-09T02:30:24.354Z,0
2023-02-09T02:31:06.076Z,0
2023-02-09T02:31:46.514Z,0
2023-02-09T02:32:26.945Z,0
2023-02-09T02:37:07.221Z,0
2023-02-09T02:37:48.599Z,0
2023-02-09T02:38:29.132Z,0
2023-02-09T02:39:09.679Z,0
2023-02-09T02:39:50.204Z,0
2023-02-09T02:40:30.739Z,0
2023-02-09T02:41:11.291Z,0
2023-02-09T02:41:51.843Z,0
2023-02-09T02:45:26.076Z,0
2023-02-09T02:46:06.656Z,0
2023-02-09T02:46:47.173Z,0
2023-02-09T02:47:27.769Z,0
2023-02-09T02:48:08.305Z,0
2023-02-09T02:48:48.830Z,0
2023-02-09T02:49:29.355Z,0
2023-02-09T02:50:09.872Z,0
2023-02-09T02:50:50.471Z,0
2023-02-09T02:51:30.952Z,0
2023-02-09T02:55:35.637Z,0
2023-02-09T02:56:16.140Z,0
2023-02-09T02:56:56.677Z,0
2023-02-09T02:57:37.184Z,0
2023-02-09T02:58:18.317Z,0
2023-02-09T02:58:58.844Z,0
2023-02-09T02:59:39.352Z,0
2023-02-09T03:00:19.860Z,0
2023-02-09T03:01:00.455Z,0
2023-02-09T03:01:41.073Z,0
2023-02-09T03:07:45.759Z,0
2023-02-09T03:08:26.932Z,0
2023-02-09T03:09:08.115Z,0
2023-02-09T03:09:49.603Z,0
2023-02-09T03:10:30.249Z,0
2023-02-09T03:11:10.660Z,0
2023-02-09T03:16:22.604Z,0
2023-02-09T03:17:03.047Z,0
2023-02-09T03:17:43.555Z,0
2023-02-09T03:18:24.138Z,0
2023-02-09T03:19:04.711Z,0
2023-02-09T03:19:45.239Z,0
2023-02-09T03:22:03.612Z,0
2023-02-09T03:22:44.113Z,0
2023-02-09T03:23:24.607Z,0
2023-02-09T03:24:05.143Z,0
2023-02-09T03:24:45.699Z,0
2023-02-09T03:25:26.214Z,0
2023-02-09T03:27:24.176Z,0
2023-02-09T03:28:04.786Z,0
2023-02-09T03:28:45.292Z,0
2023-02-09T03:29:25.841Z,0
2023-02-09T03:31:24.435Z,0
2023-02-09T03:32:04.773Z,0
2023-02-09T03:32:45.273Z,0
2023-02-09T03:33:26.432Z,0
2023-02-09T03:35:41.458Z,0
2023-02-09T03:36:21.983Z,0
2023-02-09T03:37:04.224Z,0
2023-02-09T03:37:47.139Z,0
2023-02-09T03:38:28.499Z,0
2023-02-09T03:42:29.420Z,0
2023-02-09T03:43:10.898Z,0
2023-02-09T03:43:51.473Z,0
2023-02-09T03:44:32.027Z,0
2023-02-09T03:45:12.577Z,0
2023-02-09T03:45:53.184Z,0
2023-02-09T03:46:34.293Z,0
2023-02-09T03:50:48.876Z,0
2023-02-09T03:51:29.453Z,0
2023-02-09T03:52:10.038Z,0
2023-02-09T03:52:51.590Z,0
2023-02-09T03:55:21.034Z,0
2023-02-09T03:56:01.568Z,0
2023-02-09T03:56:42.250Z,0
2023-02-09T03:57:22.818Z,0
2023-02-09T03:58:03.338Z,0
2023-02-09T03:58:44.589Z,0
2023-02-09T03:59:25.135Z,0
2023-02-09T04:00:05.640Z,0
2023-02-09T04:06:11.068Z,0
2023-02-09T04:06:51.521Z,0
2023-02-09T04:07:32.060Z,0
2023-02-09T04:08:12.533Z,0
2023-02-09T04:08:53.116Z,0
2023-02-09T04:09:33.634Z,0
2023-02-09T04:10:14.164Z,0
2023-02-09T04:10:54.684Z,0
2023-02-09T04:11:35.383Z,0
2023-02-09T04:16:47.580Z,0
2023-02-09T04:17:28.128Z,0
2023-02-09T04:18:08.659Z,0
2023-02-09T04:18:49.205Z,0
2023-02-09T04:19:29.780Z,0
2023-02-09T04:20:10.229Z,0
2023-02-09T04:22:43.978Z,0
2023-02-09T04:23:24.488Z,0
2023-02-09T04:24:04.990Z,0
2023-02-09T04:24:45.511Z,0
2023-02-09T04:27:06.331Z,0
2023-02-09T04:27:47.744Z,0
2023-02-09T04:28:28.395Z,0
2023-02-09T04:29:08.882Z,0
2023-02-09T04:31:22.424Z,0
2023-02-09T04:32:02.858Z,0
2023-02-09T04:32:44.375Z,0
2023-02-09T04:33:24.911Z,0
2023-02-09T04:34:05.433Z,0
2023-02-09T04:36:03.715Z,0
2023-02-09T04:36:44.311Z,0
2023-02-09T04:37:24.803Z,0
2023-02-09T04:38:06.345Z,0
2023-02-09T04:38:47.021Z,0
2023-02-09T04:39:27.613Z,0
2023-02-09T04:40:08.183Z,0
2023-02-09T04:45:41.210Z,0
2023-02-09T04:46:21.781Z,0
2023-02-09T04:47:03.135Z,0
2023-02-09T04:47:43.639Z,0
2023-02-09T04:48:24.192Z,0
2023-02-09T04:49:04.740Z,0
2023-02-09T04:55:10.205Z,0
2023-02-09T04:55:50.763Z,0
2023-02-09T04:56:32.238Z,0
2023-02-09T05:05:50.575Z,0
2023-02-09T05:06:31.172Z,0
2023-02-09T05:07:13.323Z,0
2023-02-09T05:07:54.684Z,0
2023-02-09T05:08:35.957Z,0
2023-02-09T05:10:02.586Z,0
2023-02-09T05:10:45.919Z,0
2023-02-09T05:12:50.038Z,0
2023-02-09T05:13:31.078Z,0
2023-02-09T05:15:29.646Z,0
2023-02-09T05:16:10.322Z,0
2023-02-09T05:16:51.631Z,0
2023-02-09T05:17:32.156Z,0
2023-02-09T05:19:45.249Z,0
2023-02-09T05:20:25.768Z,0
2023-02-09T05:21:06.300Z,0
2023-02-09T05:21:46.871Z,0
2023-02-09T05:22:27.416Z,0
2023-02-09T05:23:07.957Z,0
2023-02-09T05:25:21.347Z,0
2023-02-09T05:26:01.932Z,0
2023-02-09T05:26:43.210Z,0
2023-02-09T05:27:24.745Z,0
2023-02-09T05:29:22.809Z,0
2023-02-09T05:30:05.160Z,0
2023-02-09T05:30:46.948Z,0
2023-02-09T05:31:27.330Z,0
2023-02-09T05:32:10.144Z,0
2023-02-09T05:34:45.888Z,0
2023-02-09T05:35:26.481Z,0
2023-02-09T05:36:06.991Z,0
2023-02-09T05:36:47.464Z,0
2023-02-09T05:39:30.791Z,0
2023-02-09T05:40:12.595Z,0
2023-02-09T05:40:51.918Z,0
2023-02-09T05:41:32.574Z,0
2023-02-09T05:42:13.127Z,0
2023-02-09T05:44:41.896Z,0
2023-02-09T05:45:22.428Z,0
2023-02-09T05:46:03.009Z,0
2023-02-09T05:46:43.446Z,0
2023-02-09T05:47:24.907Z,0
2023-02-09T05:48:05.402Z,0
2023-02-09T05:50:04.434Z,0
2023-02-09T05:50:46.459Z,0
2023-02-09T05:51:26.766Z,0
2023-02-09T05:52:07.304Z,0
2023-02-09T05:55:28.883Z,0
2023-02-09T05:56:09.378Z,0
2023-02-09T05:56:49.891Z,0
2023-02-09T05:57:30.413Z,0
2023-02-09T05:58:10.924Z,0
2023-02-09T05:58:51.417Z,0
2023-02-09T05:59:31.971Z,0
2023-02-09T06:00:12.475Z,0
2023-02-09T06:00:52.992Z,0
2023-02-09T06:01:33.506Z,0
2023-02-09T06:06:58.730Z,0
2023-02-09T06:07:39.218Z,0
2023-02-09T06:08:19.755Z,0
2023-02-09T06:09:00.469Z,0
2023-02-09T06:09:41.009Z,0
2023-02-09T06:10:21.533Z,0
2023-02-09T06:11:02.071Z,0
2023-02-09T06:11:42.602Z,0
2023-02-09T06:12:23.165Z,0
2023-02-09T06:13:04.632Z,4
2023-02-09T06:17:48.904Z,0
2023-02-09T06:18:29.421Z,4
2023-02-09T06:19:09.989Z,4
2023-02-09T06:19:50.574Z,4
2023-02-09T06:22:03.629Z,8
2023-02-09T06:22:44.137Z,8
2023-02-09T06:23:24.644Z,8
2023-02-09T06:24:05.184Z,8
2023-02-09T06:26:23.872Z,16
2023-02-09T06:27:07.088Z,20
2023-02-09T06:27:48.503Z,20
2023-02-09T06:28:33.557Z,20
2023-02-09T06:29:14.006Z,28
2023-02-09T06:31:45.076Z,40
2023-02-09T06:32:25.488Z,44
2023-02-09T06:33:06.004Z,44
2023-02-09T06:33:46.503Z,52
2023-02-09T06:34:27.040Z,56
2023-02-09T06:35:07.559Z,64
2023-02-09T06:35:48.068Z,68
2023-02-09T06:37:47.518Z,88
2023-02-09T06:38:28.051Z,96
2023-02-09T06:39:08.624Z,100
2023-02-09T06:39:49.331Z,108
2023-02-09T06:40:29.833Z,116
2023-02-09T06:42:43.944Z,148
2023-02-09T06:43:26.795Z,160
2023-02-09T06:44:13.566Z,172
2023-02-09T06:44:54.110Z,188
2023-02-09T06:47:19.833Z,232
2023-02-09T06:48:00.503Z,244
2023-02-09T06:48:41.217Z,260
2023-02-09T06:49:21.766Z,272
2023-02-09T06:51:36.973Z,324
2023-02-09T06:52:17.534Z,344
2023-02-09T06:52:58.084Z,356
2023-02-09T06:53:38.635Z,376
2023-02-09T06:54:19.188Z,392
2023-02-09T06:54:59.743Z,412
2023-02-09T06:57:13.327Z,468
2023-02-09T06:57:57.858Z,492
2023-02-09T06:58:38.347Z,512
2023-02-09T06:59:20.555Z,532
2023-02-09T07:01:35.993Z,600
2023-02-09T07:02:16.533Z,624
2023-02-09T07:02:57.125Z,644
2023-02-09T07:03:37.592Z,668
2023-02-09T07:06:05.910Z,752
2023-02-09T07:06:46.557Z,772
2023-02-09T07:07:27.065Z,796
2023-02-09T07:08:07.628Z,820
2023-02-09T07:08:48.161Z,840
2023-02-09T07:09:29.687Z,864
2023-02-09T07:10:11.182Z,888
2023-02-09T07:14:56.088Z,1048
2023-02-09T07:15:36.649Z,1076
2023-02-09T07:16:17.420Z,1108
2023-02-09T07:18:31.074Z,1196
2023-02-09T07:19:12.364Z,1228
2023-02-09T07:19:56.052Z,1252
2023-02-09T07:20:40.062Z,1280
2023-02-09T07:23:41.270Z,1396
2023-02-09T07:24:21.831Z,1420
2023-02-09T07:25:03.181Z,1452
2023-02-09T07:25:43.715Z,1476
2023-02-09T07:28:07.784Z,1568
2023-02-09T07:28:51.262Z,1592
2023-02-09T07:29:31.513Z,1620
2023-02-09T07:30:12.168Z,1644
2023-02-09T07:33:28.493Z,1764
2023-02-09T07:34:09.048Z,1792
2023-02-09T07:34:49.857Z,1816
2023-02-09T07:35:30.423Z,1828
2023-02-09T07:36:10.961Z,1860
2023-02-09T07:36:51.549Z,1884
2023-02-09T07:37:32.101Z,1908
2023-02-09T07:38:13.344Z,1940
2023-02-09T07:43:38.357Z,2156
2023-02-09T07:44:18.867Z,2184
2023-02-09T07:44:59.438Z,2208
2023-02-09T07:45:39.947Z,2236
2023-02-09T07:46:20.501Z,2268
2023-02-09T07:47:00.977Z,2292
2023-02-09T07:47:41.493Z,2324
2023-02-09T07:48:22.019Z,2356
2023-02-09T07:49:02.494Z,2380
2023-02-09T07:49:43.000Z,2404
2023-02-09T07:56:28.500Z,2712
2023-02-09T07:57:09.003Z,2724
2023-02-09T07:57:49.525Z,2744
2023-02-09T07:58:30.071Z,2768
2023-02-09T07:59:10.677Z,2780
2023-02-09T07:59:51.300Z,2812
2023-02-09T08:00:31.782Z,2848
2023-02-09T08:01:12.304Z,2888
2023-02-09T08:01:52.875Z,2928
2023-02-09T08:02:33.366Z,2956
2023-02-09T08:07:58.382Z,3148
2023-02-09T08:08:39.002Z,3184
2023-02-09T08:09:19.427Z,3212
2023-02-09T08:09:59.989Z,3240
2023-02-09T08:12:13.106Z,3304
2023-02-09T08:12:53.550Z,3332
2023-02-09T08:13:34.159Z,3356
2023-02-09T08:14:14.696Z,3376
2023-02-09T08:14:55.272Z,3400
2023-02-09T08:15:35.755Z,3408
2023-02-09T08:16:16.322Z,3444
2023-02-09T08:16:56.874Z,3464
2023-02-09T08:17:37.376Z,3484
2023-02-09T08:18:17.919Z,3492
2023-02-09T08:24:22.719Z,3672
2023-02-09T08:25:03.189Z,3696
2023-02-09T08:25:43.983Z,3724
2023-02-09T08:26:24.234Z,3724
2023-02-09T08:27:04.837Z,3744
2023-02-09T08:27:45.395Z,3756
2023-02-09T08:28:38.419Z,3776
2023-02-09T08:29:06.427Z,3828
2023-02-09T08:29:48.829Z,3820
2023-02-09T08:30:27.491Z,3856
2023-02-09T08:31:08.146Z,3832
2023-02-09T08:35:53.204Z,3996
2023-02-09T08:36:33.718Z,4000
2023-02-09T08:37:14.298Z,4020
2023-02-09T08:37:54.707Z,4044
2023-02-09T08:38:35.209Z,4088
2023-02-09T08:39:15.709Z,4064
2023-02-09T08:39:56.229Z,4088
2023-02-09T08:40:36.747Z,4124
2023-02-09T08:41:17.258Z,4136
2023-02-09T08:41:57.808Z,4156
2023-02-09T08:45:16.836Z,4196
2023-02-09T08:45:58.002Z,4200
2023-02-09T08:46:38.570Z,4176
2023-02-09T08:47:19.052Z,4180
2023-02-09T08:47:59.744Z,4236
2023-02-09T08:48:40.319Z,4228
2023-02-09T08:49:20.848Z,4268
2023-02-09T08:50:01.492Z,4288
2023-02-09T08:54:01.106Z,4476
2023-02-09T08:54:41.672Z,4504
2023-02-09T08:55:22.175Z,4588
2023-02-09T08:56:03.617Z,4592
2023-02-09T08:56:44.167Z,4600
2023-02-09T08:57:34.845Z,4648
2023-02-09T08:58:05.137Z,4656
2023-02-09T08:58:45.675Z,4604
2023-02-09T08:59:26.779Z,4672
2023-02-09T09:04:11.294Z,4884
2023-02-09T09:04:51.817Z,4932
2023-02-09T09:05:32.368Z,4916
2023-02-09T09:06:12.905Z,4900
2023-02-09T09:06:54.069Z,4892
2023-02-09T09:07:35.150Z,4904
2023-02-09T09:08:15.727Z,4948
2023-02-09T09:13:40.965Z,5088
2023-02-09T09:14:22.298Z,5124
2023-02-09T09:15:02.846Z,5140
2023-02-09T09:15:43.564Z,5100
2023-02-09T09:16:23.958Z,5108
2023-02-09T09:17:04.442Z,5104
2023-02-09T09:17:44.946Z,5172
2023-02-09T09:18:26.222Z,5188
2023-02-09T09:23:06.369Z,5320
2023-02-09T09:23:46.964Z,5364
2023-02-09T09:24:27.492Z,5412
2023-02-09T09:25:08.038Z,5400
2023-02-09T09:25:48.874Z,5408
2023-02-09T09:26:29.137Z,5428
2023-02-09T09:27:09.729Z,5476
2023-02-09T09:27:51.030Z,5520
2023-02-09T09:33:53.569Z,5588
2023-02-09T09:34:34.081Z,5624
2023-02-09T09:35:14.671Z,5576
2023-02-09T09:35:55.207Z,5596
2023-02-09T09:36:35.766Z,5592
2023-02-09T09:37:16.322Z,5636
2023-02-09T09:37:57.016Z,5648
2023-02-09T09:38:37.547Z,5712
2023-02-09T09:39:18.066Z,5740
2023-02-09T09:41:30.876Z,5768
2023-02-09T09:42:11.404Z,5760
2023-02-09T09:42:51.899Z,5752
2023-02-09T09:43:33.228Z,5800
2023-02-09T09:46:09.042Z,5848
2023-02-09T09:46:50.273Z,5876
2023-02-09T09:47:30.838Z,5832
2023-02-09T09:48:11.379Z,5864
2023-02-09T09:50:26.560Z,5916
2023-02-09T09:51:10.283Z,5908
2023-02-09T09:51:50.928Z,5916
2023-02-09T09:52:33.334Z,5900
2023-02-09T09:55:06.705Z,5864
2023-02-09T09:55:47.556Z,5876
2023-02-09T09:56:27.759Z,5916
2023-02-09T09:57:08.269Z,5944
2023-02-09T09:57:51.426Z,6000
2023-02-09T10:01:16.767Z,6016
2023-02-09T10:01:58.948Z,6064
2023-02-09T10:02:40.162Z,6132
2023-02-09T10:04:54.791Z,6164
2023-02-09T10:05:35.327Z,6156
2023-02-09T10:06:15.872Z,6164
2023-02-09T10:06:56.469Z,6184
2023-02-09T10:09:10.302Z,6288
2023-02-09T10:09:50.814Z,6300
2023-02-09T10:10:32.336Z,6308
2023-02-09T10:11:13.691Z,6296
2023-02-09T10:13:27.279Z,6216
2023-02-09T10:14:07.813Z,6224
2023-02-09T10:14:48.468Z,6240
2023-02-09T10:15:29.029Z,6268
2023-02-09T10:16:09.612Z,6268
2023-02-09T10:16:50.268Z,6300
2023-02-09T10:17:30.821Z,6324
2023-02-09T10:18:11.373Z,6324
2023-02-09T10:18:51.885Z,6320
2023-02-09T10:22:57.116Z,6256
2023-02-09T10:23:38.034Z,6276
2023-02-09T10:24:18.855Z,6300
2023-02-09T10:24:59.785Z,6308
2023-02-09T10:25:40.549Z,6300
2023-02-09T10:26:21.882Z,6304
2023-02-09T10:32:23.799Z,6364
2023-02-09T10:33:04.343Z,6332
2023-02-09T10:33:45.471Z,6308
2023-02-09T10:34:26.006Z,6308
2023-02-09T10:36:45.139Z,6288
2023-02-09T10:37:25.667Z,6280
2023-02-09T10:38:08.861Z,6280
2023-02-09T10:38:49.426Z,6268
2023-02-09T10:39:29.952Z,6284
2023-02-09T10:41:42.544Z,6356
2023-02-09T10:43:05.642Z,6320
2023-02-09T10:43:47.620Z,6316
2023-02-09T10:44:28.156Z,6320
2023-02-09T10:45:09.436Z,6324
2023-02-09T10:47:14.955Z,6292
2023-02-09T10:47:56.045Z,6256
2023-02-09T10:48:37.814Z,6220
2023-02-09T10:49:20.810Z,6200
2023-02-09T10:52:05.290Z,6196
2023-02-09T10:52:46.628Z,6220
2023-02-09T10:55:02.926Z,6268
2023-02-09T10:55:43.620Z,6252
2023-02-09T10:56:26.495Z,6244
2023-02-09T10:57:06.975Z,6228
2023-02-09T10:59:20.038Z,6256
2023-02-09T11:00:00.596Z,6244
2023-02-09T11:00:41.135Z,6232
2023-02-09T11:01:21.781Z,6256
2023-02-09T11:02:02.272Z,6236
2023-02-09T11:02:44.312Z,6232
2023-02-09T11:03:24.838Z,6216
2023-02-09T11:08:45.208Z,6648
2023-02-09T11:09:25.750Z,6632
2023-02-09T11:10:12.270Z,6572
2023-02-09T11:10:46.840Z,6536
2023-02-09T11:11:27.458Z,6532
2023-02-09T11:12:07.967Z,6528
2023-02-09T11:12:48.488Z,6552
2023-02-09T11:13:30.936Z,6596
2023-02-09T11:14:09.508Z,6644
2023-02-09T11:14:50.625Z,6684
2023-02-09T11:19:35.123Z,6480
2023-02-09T11:20:15.683Z,6412
2023-02-09T11:20:56.250Z,6436
2023-02-09T11:21:36.737Z,6516
2023-02-09T11:24:05.022Z,6720
2023-02-09T11:24:46.380Z,6740
2023-02-09T11:25:27.591Z,6776
2023-02-09T11:26:08.082Z,6824
2023-02-09T11:26:48.613Z,6848
2023-02-09T11:27:29.186Z,6824
2023-02-09T11:29:42.274Z,6776
2023-02-09T11:30:22.924Z,6756
2023-02-09T11:31:03.609Z,6776
2023-02-09T11:31:43.987Z,6792
2023-02-09T11:32:24.501Z,6808
2023-02-09T11:34:23.775Z,6728
2023-02-09T11:35:03.861Z,6712
2023-02-09T11:35:45.005Z,6688
2023-02-09T11:36:25.561Z,6684
2023-02-09T11:39:01.641Z,6464
2023-02-09T11:39:45.906Z,6516
2023-02-09T11:40:29.608Z,6632
2023-02-09T11:41:12.720Z,6692
2023-02-09T11:41:59.713Z,6708
2023-02-09T11:42:41.086Z,6656
2023-02-09T11:43:22.662Z,6624
2023-02-09T11:44:05.105Z,6592
2023-02-09T11:44:53.188Z,6600
2023-02-09T11:45:36.794Z,6596
2023-02-09T11:46:20.998Z,6604
2023-02-09T11:47:03.568Z,6636
2023-02-09T11:47:45.954Z,6636
2023-02-09T11:49:11.161Z,6648
2023-02-09T11:49:53.644Z,6684
2023-02-09T11:50:43.965Z,6716
2023-02-09T11:52:14.739Z,6760
2023-02-09T11:52:58.247Z,6784
2023-02-09T11:53:42.194Z,6800
2023-02-09T11:54:23.763Z,6832
2023-02-09T11:55:07.942Z,6880
2023-02-09T11:56:32.616Z,6860
2023-02-09T11:57:16.564Z,6708
2023-02-09T11:58:41.451Z,6312
2023-02-09T12:01:15.652Z,6240
2023-02-09T12:01:51.879Z,6368
2023-02-09T12:02:32.477Z,6468
2023-02-09T12:03:13.014Z,6528
2023-02-09T12:03:53.519Z,6548
2023-02-09T12:04:34.692Z,6556
2023-02-09T12:06:48.002Z,6456
2023-02-09T12:07:30.248Z,6392
2023-02-09T12:08:09.635Z,6328
2023-02-09T12:08:50.093Z,6272
2023-02-09T12:11:23.296Z,5864
2023-02-09T12:12:03.779Z,5708
2023-02-09T12:12:45.055Z,5616
2023-02-09T12:14:43.330Z,5524
2023-02-09T12:15:23.858Z,5520
2023-02-09T12:16:04.486Z,5536
2023-02-09T12:16:44.975Z,5552
2023-02-09T12:19:03.644Z,5576
2023-02-09T12:19:45.036Z,5560
2023-02-09T12:20:26.237Z,5548
2023-02-09T12:21:06.768Z,5560
2023-02-09T12:23:20.082Z,5552
2023-02-09T12:24:01.478Z,5552
2023-02-09T12:24:42.057Z,5564
2023-02-09T12:25:22.586Z,5564
2023-02-09T12:27:51.489Z,5528
2023-02-09T12:28:33.573Z,5520
2023-02-09T12:29:15.697Z,5512
2023-02-09T12:29:56.517Z,5492
2023-02-09T12:32:09.924Z,5560
2023-02-09T12:32:50.535Z,5560
2023-02-09T12:33:31.627Z,5552
2023-02-09T12:34:12.224Z,5524
2023-02-09T12:34:54.829Z,5484
2023-02-09T12:37:51.475Z,5492
2023-02-09T12:38:31.989Z,5488
2023-02-09T12:39:12.485Z,5488
2023-02-09T12:39:59.846Z,5484
2023-02-09T12:42:08.287Z,5500
2023-02-09T12:42:52.448Z,5472
2023-02-09T12:43:33.726Z,5448
2023-02-09T12:46:12.083Z,5480
2023-02-09T12:46:52.581Z,5516
2023-02-09T12:47:33.046Z,5544
2023-02-09T12:48:13.587Z,5544
2023-02-09T12:51:45.794Z,5320
2023-02-09T12:52:26.292Z,5332
2023-02-09T12:53:06.805Z,5324
2023-02-09T12:53:48.013Z,5304
2023-02-09T12:56:02.535Z,5272
2023-02-09T12:56:47.192Z,5264
2023-02-09T12:57:28.640Z,5240
2023-02-09T12:58:11.087Z,5240
2023-02-09T12:58:53.202Z,5228
2023-02-09T12:59:38.397Z,5212
2023-02-09T13:00:30.218Z,5192
2023-02-09T13:01:15.355Z,5156
2023-02-09T13:01:58.232Z,5132
2023-02-09T13:03:26.342Z,5104
2023-02-09T13:04:11.360Z,5076
2023-02-09T13:04:56.511Z,5028
2023-02-09T13:08:22.020Z,5076
2023-02-09T13:09:02.588Z,5080
2023-02-09T13:09:43.112Z,5076
2023-02-09T13:12:11.767Z,5040
2023-02-09T13:12:52.329Z,5016
2023-02-09T13:13:32.853Z,4980
2023-02-09T13:14:13.472Z,4976
2023-02-09T13:14:53.968Z,4944
2023-02-09T13:15:34.515Z,4900
2023-02-09T13:16:15.020Z,4848
2023-02-09T13:16:56.256Z,4788
2023-02-09T13:17:36.769Z,4744
2023-02-09T13:23:28.590Z,4764
2023-02-09T13:24:10.001Z,4756
2023-02-09T13:24:50.478Z,4716
2023-02-09T13:25:31.082Z,4704
2023-02-09T13:27:31.719Z,4708
2023-02-09T13:28:12.350Z,4664
2023-02-09T13:28:53.774Z,4624
2023-02-09T13:29:34.425Z,4612
2023-02-09T13:31:47.557Z,4496
2023-02-09T13:32:28.094Z,4476
2023-02-09T13:33:08.657Z,4472
2023-02-09T13:33:49.186Z,4492
2023-02-09T13:34:29.670Z,4512
2023-02-09T13:35:10.215Z,4512
2023-02-09T13:35:50.754Z,4512
2023-02-09T13:38:03.563Z,4356
2023-02-09T13:38:44.099Z,4352
2023-02-09T13:39:24.617Z,4364
2023-02-09T13:40:06.098Z,4356
2023-02-09T13:42:24.771Z,4368
2023-02-09T13:43:07.497Z,4360
2023-02-09T13:43:48.383Z,4340
2023-02-09T13:44:31.036Z,4232
2023-02-09T13:46:46.061Z,4112
2023-02-09T13:47:28.598Z,4160
2023-02-09T13:48:11.790Z,4212
2023-02-09T13:48:51.533Z,4224
2023-02-09T13:49:33.708Z,4168
2023-02-09T13:52:08.915Z,4040
2023-02-09T13:52:49.475Z,4040
2023-02-09T13:55:22.864Z,4028
2023-02-09T13:56:03.333Z,4016
2023-02-09T13:56:43.889Z,4012
2023-02-09T13:57:24.482Z,4008
2023-02-09T13:58:05.124Z,4000
2023-02-09T13:58:45.631Z,4000
2023-02-09T13:59:26.201Z,3996
2023-02-09T14:01:39.056Z,3924
2023-02-09T14:02:19.798Z,3916
2023-02-09T14:03:00.268Z,3924
2023-02-09T14:03:44.572Z,3928
2023-02-09T14:06:11.592Z,3996
2023-02-09T14:06:52.081Z,4004
2023-02-09T14:07:36.246Z,4020
2023-02-09T14:08:18.506Z,4020
2023-02-09T14:10:32.796Z,3988
2023-02-09T14:11:14.423Z,3960
2023-02-09T14:11:55.790Z,3932
2023-02-09T14:12:37.301Z,3888
2023-02-09T14:14:50.334Z,3772
2023-02-09T14:15:30.876Z,3736
2023-02-09T14:16:11.468Z,3724
2023-02-09T14:16:53.958Z,3708
2023-02-09T14:19:12.220Z,3680
2023-02-09T14:19:55.499Z,3668
2023-02-09T14:20:38.821Z,3656
2023-02-09T14:21:23.078Z,3640
2023-02-09T14:22:06.476Z,3596
2023-02-09T14:22:47.928Z,3564
2023-02-09T14:23:33.805Z,3524
2023-02-09T14:24:19.156Z,3476
2023-02-09T14:25:02.603Z,3464
2023-02-09T14:27:09.692Z,3528
2023-02-09T14:27:53.869Z,3536
2023-02-09T14:29:18.241Z,3496
2023-02-09T14:29:58.588Z,3496
2023-02-09T14:30:44.214Z,3488
2023-02-09T14:32:09.906Z,3444
2023-02-09T14:32:52.720Z,3424
2023-02-09T14:34:17.805Z,3400
2023-02-09T14:35:02.953Z,3392
2023-02-09T14:38:57.323Z,3320
2023-02-09T14:39:39.829Z,3292
2023-02-09T14:40:21.150Z,3272
2023-02-09T14:41:01.685Z,3256
2023-02-09T14:42:59.608Z,3208
2023-02-09T14:43:40.103Z,3192
2023-02-09T14:44:20.675Z,3184
2023-02-09T14:45:01.174Z,3196
2023-02-09T14:49:12.218Z,3116
2023-02-09T14:49:52.776Z,3100
2023-02-09T14:50:33.304Z,3084
2023-02-09T14:51:14.650Z,3080
2023-02-09T14:53:27.723Z,3064
2023-02-09T14:54:08.274Z,3036
2023-02-09T14:54:48.766Z,3012
2023-02-09T14:55:29.276Z,2988
2023-02-09T14:57:46.833Z,2912
2023-02-09T14:58:30.118Z,2900
2023-02-09T14:59:14.302Z,2892
2023-02-09T15:01:52.536Z,2856
2023-02-09T15:02:34.897Z,2844
2023-02-09T15:03:16.067Z,2824
2023-02-09T15:03:59.381Z,2804
2023-02-09T15:06:14.446Z,2728
2023-02-09T15:06:54.917Z,2704
2023-02-09T15:07:35.467Z,2684
2023-02-09T15:08:16.918Z,2660
2023-02-09T15:10:33.692Z,2596
2023-02-09T15:11:15.111Z,2576
2023-02-09T15:11:55.657Z,2564
2023-02-09T15:12:38.216Z,2548
2023-02-09T15:13:18.751Z,2536
2023-02-09T15:16:55.435Z,2484
2023-02-09T15:17:36.094Z,2472
2023-02-09T15:18:17.928Z,2452
2023-02-09T15:19:00.873Z,2428
2023-02-09T15:21:17.020Z,2340
2023-02-09T15:22:07.195Z,2296
2023-02-09T15:22:40.787Z,2280
2023-02-09T15:23:23.686Z,2248
2023-02-09T15:24:04.841Z,2220
2023-02-09T15:24:51.825Z,2176
2023-02-09T15:25:32.604Z,2144
2023-02-09T15:29:31.505Z,1992
2023-02-09T15:30:12.068Z,1972
2023-02-09T15:30:52.673Z,1956
2023-02-09T15:31:34.056Z,1936
2023-02-09T15:32:14.550Z,1932
2023-02-09T15:32:55.076Z,1924
2023-02-09T15:33:37.164Z,1912
2023-02-09T15:36:48.637Z,1888
2023-02-09T15:37:29.143Z,1880
2023-02-09T15:38:09.654Z,1864